Time,TemperatureF,DewpointF,PressureIn,WindDirection,WindDirectionDegrees,WindSpeedMPH,WindSpeedGustMPH,Humidity,HourlyPrecipIn,Conditions,Clouds,dailyrainin,SoftwareType,DateUTC
2013-08-09 07:25:00,71.0,70.1,29.97,SW,225,0.0,0.0,97,0.00,,---,0.00,VWS V14.01,2013-08-09 11:25:00,
2013-08-09 07:26:00,71.0,70.1,29.97,SW,225,0.0,0.0,97,0.00,,---,0.00,VWS V14.01,2013-08-09 11:26:00,
2013-08-09 07:31:00,71.0,70.4,29.96,SE,135,0.0,0.0,98,0.00,,---,0.00,VWS V14.01,2013-08-09 11:31:00,
2013-08-09 07:36:00,71.0,70.4,29.97,WSW,247,0.0,0.0,98,0.00,,---,0.00,VWS V14.01,2013-08-09 11:36:00,
2013-08-09 07:41:00,71.0,70.4,29.97,SSE,157,0.0,0.0,98,0.00,,---,0.00,VWS V14.01,2013-08-09 11:41:00,
2013-08-09 07:46:00,71.0,70.4,29.96,SSE,157,0.0,0.0,98,0.00,,---,0.00,VWS V14.01,2013-08-09 11:46:00,
2013-08-09 07:51:00,71.0,70.7,29.96,NW,315,0.0,0.0,99,0.00,,---,0.00,VWS V14.01,2013-08-09 11:51:00,
2013-08-09 07:56:00,71.0,70.7,29.96,SW,225,0.0,2.0,99,0.00,,---,0.00,VWS V14.01,2013-08-09 11:56:00,
2013-08-09 08:01:00,71.0,70.7,29.96,SE,135,0.0,0.0,99,0.00,,---,0.00,VWS V14.01,2013-08-09 12:01:00,
2013-08-09 08:06:00,71.0,70.7,29.96,SSW,202,2.0,2.0,99,0.00,,---,0.00,VWS V14.01,2013-08-09 12:06:00,
2013-08-09 08:11:00,71.0,70.7,29.96,SSW,202,0.0,0.0,99,0.00,,---,0.00,VWS V14.01,2013-08-09 12:11:00,
2013-08-09 08:16:00,71.0,70.7,29.96,SSW,202,0.0,0.0,99,0.00,,---,0.00,VWS V14.01,2013-08-09 12:16:00,
2013-08-09 08:21:00,71.0,70.7,29.96,WSW,247,0.0,0.0,99,0.01,,---,0.01,VWS V14.01,2013-08-09 12:21:00,
2013-08-09 08:26:00,71.0,70.7,29.96,WSW,247,0.0,0.0,99,0.01,,---,0.01,VWS V14.01,2013-08-09 12:26:00,
2013-08-09 08:31:00,71.0,70.7,29.96,WSW,247,0.0,0.0,99,0.01,,---,0.01,VWS V14.01,2013-08-09 12:31:00,
2013-08-09 08:36:00,71.0,70.7,29.96,WSW,247,0.0,0.0,99,0.01,,---,0.01,VWS V14.01,2013-08-09 12:36:00,
2013-08-09 08:41:00,71.0,70.7,29.96,SW,225,0.0,0.0,99,0.01,,---,0.01,VWS V14.01,2013-08-09 12:41:00,
2013-08-09 08:46:00,71.0,70.7,29.96,SW,225,0.0,0.0,99,0.02,,---,0.02,VWS V14.01,2013-08-09 12:46:00,
2013-08-09 08:51:00,71.0,70.7,29.96,SW,225,0.0,0.0,99,0.02,,---,0.02,VWS V14.01,2013-08-09 12:51:00,
2013-08-09 08:56:00,71.0,70.7,29.96,SW,225,0.0,0.0,99,0.02,,---,0.02,VWS V14.01,2013-08-09 12:56:00,
2013-08-09 09:01:00,71.0,70.7,29.96,SW,225,0.0,0.0,99,0.03,,---,0.03,VWS V14.01,2013-08-09 13:01:00,
2013-08-09 09:06:00,71.0,70.7,29.95,SW,225,0.0,0.0,99,0.03,,---,0.03,VWS V14.01,2013-08-09 13:06:00,
2013-08-09 09:11:00,71.0,70.7,29.95,SW,225,0.0,0.0,99,0.03,,---,0.03,VWS V14.01,2013-08-09 13:11:00,
2013-08-09 09:16:00,71.0,70.7,29.95,SW,225,0.0,0.0,99,0.04,,---,0.04,VWS V14.01,2013-08-09 13:16:00,
2013-08-09 09:21:00,71.0,70.7,29.95,SW,225,1.0,2.0,99,0.03,,---,0.04,VWS V14.01,2013-08-09 13:21:00,
2013-08-09 09:26:00,71.0,70.7,29.95,SW,225,0.0,0.0,99,0.04,,---,0.05,VWS V14.01,2013-08-09 13:26:00,
2013-08-09 09:31:00,71.0,70.7,29.94,SW,225,0.0,0.0,99,0.04,,---,0.05,VWS V14.01,2013-08-09 13:31:00,
2013-08-09 09:36:00,71.0,70.7,29.94,SW,225,0.0,0.0,99,0.04,,---,0.05,VWS V14.01,2013-08-09 13:36:00,
2013-08-09 09:41:00,71.0,70.7,29.94,SSW,202,0.0,0.0,99,0.05,,---,0.06,VWS V14.01,2013-08-09 13:41:00,
2013-08-09 09:46:00,71.0,70.7,29.94,SSW,202,0.0,0.0,99,0.04,,---,0.06,VWS V14.01,2013-08-09 13:46:00,
2013-08-09 09:51:00,72.0,71.7,29.94,South,180,0.0,0.0,99,0.04,,---,0.06,VWS V14.01,2013-08-09 13:51:00,
2013-08-09 09:56:00,72.0,71.7,29.94,South,180,0.0,0.0,99,0.04,,---,0.06,VWS V14.01,2013-08-09 13:56:00,
2013-08-09 10:01:00,72.0,71.7,29.94,South,180,0.0,0.0,99,0.04,,---,0.06,VWS V14.01,2013-08-09 14:01:00,
2013-08-09 10:06:00,72.0,71.7,29.93,SSW,202,0.0,0.0,99,0.04,,---,0.07,VWS V14.01,2013-08-09 14:06:00,
2013-08-09 10:11:00,72.0,71.7,29.93,South,180,0.0,1.0,99,0.04,,---,0.07,VWS V14.01,2013-08-09 14:11:00,
2013-08-09 10:16:00,72.0,71.7,29.93,SW,225,0.0,3.0,99,0.04,,---,0.07,VWS V14.01,2013-08-09 14:16:00,
2013-08-09 10:21:00,72.0,71.7,29.93,South,180,0.0,0.0,99,0.04,,---,0.08,VWS V14.01,2013-08-09 14:21:00,
2013-08-09 10:26:00,72.0,71.7,29.93,South,180,0.0,0.0,99,0.04,,---,0.09,VWS V14.01,2013-08-09 14:26:00,
2013-08-09 10:31:00,72.0,71.7,29.94,SSW,202,0.0,2.0,99,0.05,,---,0.10,VWS V14.01,2013-08-09 14:31:00,
2013-08-09 10:36:00,72.0,71.7,29.93,SSW,202,0.0,0.0,99,0.05,,---,0.10,VWS V14.01,2013-08-09 14:36:00,
2013-08-09 10:41:00,72.0,71.7,29.93,ESE,112,0.0,3.0,99,0.05,,---,0.11,VWS V14.01,2013-08-09 14:41:00,
2013-08-09 10:46:00,72.0,71.7,29.92,SE,135,0.0,0.0,99,0.06,,---,0.12,VWS V14.01,2013-08-09 14:46:00,
2013-08-09 10:51:00,72.0,71.7,29.92,SSW,202,0.0,2.0,99,0.06,,---,0.12,VWS V14.01,2013-08-09 14:51:00,
2013-08-09 10:56:00,72.0,71.7,29.92,ESE,112,0.0,0.0,99,0.06,,---,0.12,VWS V14.01,2013-08-09 14:56:00,
2013-08-09 11:01:00,72.0,71.7,29.92,SSW,202,0.0,1.0,99,0.07,,---,0.13,VWS V14.01,2013-08-09 15:01:00,
2013-08-09 11:06:00,72.0,71.7,29.92,NE,45,0.0,0.0,99,0.06,,---,0.13,VWS V14.01,2013-08-09 15:06:00,
2013-08-09 11:11:00,72.0,71.7,29.92,ENE,67,0.0,1.0,99,0.06,,---,0.13,VWS V14.01,2013-08-09 15:11:00,
2013-08-09 11:16:00,72.0,71.7,29.91,ENE,67,0.0,0.0,99,0.06,,---,0.13,VWS V14.01,2013-08-09 15:16:00,
2013-08-09 11:21:00,72.0,71.7,29.91,ESE,112,0.0,0.0,99,0.07,,---,0.14,VWS V14.01,2013-08-09 15:21:00,
2013-08-09 11:26:00,72.0,71.7,29.90,ESE,112,0.0,0.0,99,0.06,,---,0.14,VWS V14.01,2013-08-09 15:26:00,
2013-08-09 11:31:00,72.0,71.7,29.91,ESE,112,0.0,0.0,99,0.05,,---,0.14,VWS V14.01,2013-08-09 15:31:00,
2013-08-09 11:36:00,72.0,71.7,29.91,ESE,112,0.0,0.0,99,0.04,,---,0.14,VWS V14.01,2013-08-09 15:36:00,
2013-08-09 11:41:00,72.0,71.7,29.90,East,90,0.0,0.0,99,0.04,,---,0.15,VWS V14.01,2013-08-09 15:41:00,
2013-08-09 11:46:00,72.0,71.7,29.90,East,90,0.0,0.0,99,0.04,,---,0.15,VWS V14.01,2013-08-09 15:46:00,
2013-08-09 11:51:00,72.0,71.7,29.90,East,90,0.0,0.0,99,0.03,,---,0.15,VWS V14.01,2013-08-09 15:51:00,
2013-08-09 11:56:00,72.0,71.7,29.90,ESE,112,1.0,1.0,99,0.03,,---,0.15,VWS V14.01,2013-08-09 15:56:00,
2013-08-09 12:01:00,72.0,71.7,29.89,SE,135,0.0,0.0,99,0.05,,---,0.17,VWS V14.01,2013-08-09 16:01:00,
2013-08-09 12:06:00,72.0,71.7,29.89,SSW,202,0.0,0.0,99,0.08,,---,0.21,VWS V14.01,2013-08-09 16:06:00,
2013-08-09 12:11:00,72.0,71.7,29.89,WSW,247,0.0,1.0,99,0.11,,---,0.24,VWS V14.01,2013-08-09 16:11:00,
2013-08-09 12:16:00,72.0,71.7,29.88,ESE,112,0.0,2.0,99,0.12,,---,0.25,VWS V14.01,2013-08-09 16:16:00,
2013-08-09 12:21:00,72.0,71.7,29.88,ESE,112,0.0,0.0,99,0.12,,---,0.26,VWS V14.01,2013-08-09 16:21:00,
2013-08-09 12:26:00,72.0,71.7,29.88,WSW,247,0.0,2.0,99,0.13,,---,0.27,VWS V14.01,2013-08-09 16:26:00,
2013-08-09 12:31:00,72.0,71.7,29.88,West,270,0.0,2.0,99,0.13,,---,0.27,VWS V14.01,2013-08-09 16:31:00,
2013-08-09 12:36:00,72.0,71.7,29.88,SSW,202,0.0,2.0,99,0.14,,---,0.28,VWS V14.01,2013-08-09 16:36:00,
2013-08-09 12:41:00,72.0,71.7,29.88,WSW,247,1.0,2.0,99,0.15,,---,0.29,VWS V14.01,2013-08-09 16:41:00,
2013-08-09 12:46:00,72.0,71.7,29.88,SSW,202,0.0,0.0,99,0.15,,---,0.30,VWS V14.01,2013-08-09 16:46:00,
2013-08-09 12:51:00,72.0,71.7,29.87,SW,225,0.0,0.0,99,0.15,,---,0.30,VWS V14.01,2013-08-09 16:51:00,
2013-08-09 12:56:00,72.0,71.7,29.87,SW,225,0.0,0.0,99,0.16,,---,0.31,VWS V14.01,2013-08-09 16:56:00,
2013-08-09 13:01:00,72.0,71.7,29.87,SSE,157,0.0,1.0,99,0.15,,---,0.31,VWS V14.01,2013-08-09 17:01:00,
2013-08-09 13:06:00,72.0,71.7,29.87,South,180,0.0,4.0,99,0.12,,---,0.32,VWS V14.01,2013-08-09 17:06:00,
2013-08-09 13:11:00,72.0,71.7,29.87,SSW,202,0.0,0.0,99,0.09,,---,0.32,VWS V14.01,2013-08-09 17:11:00,
2013-08-09 13:16:00,72.0,71.7,29.86,SSW,202,1.0,1.0,99,0.08,,---,0.33,VWS V14.01,2013-08-09 17:16:00,
2013-08-09 13:21:00,72.0,71.7,29.86,SSW,202,0.0,0.0,99,0.08,,---,0.33,VWS V14.01,2013-08-09 17:21:00,
2013-08-09 13:26:00,71.0,70.7,29.86,SSW,202,0.0,0.0,99,0.06,,---,0.33,VWS V14.01,2013-08-09 17:26:00,
2013-08-09 13:31:00,71.0,70.7,29.86,WSW,247,0.0,0.0,99,0.07,,---,0.34,VWS V14.01,2013-08-09 17:31:00,
2013-08-09 13:36:00,71.0,70.7,29.85,ESE,112,0.0,0.0,99,0.07,,---,0.35,VWS V14.01,2013-08-09 17:36:00,
2013-08-09 13:41:00,71.0,70.7,29.84,SW,225,0.0,0.0,99,0.07,,---,0.35,VWS V14.01,2013-08-09 17:41:00,
2013-08-09 13:46:00,71.0,70.7,29.84,NW,315,4.0,4.0,99,0.07,,---,0.36,VWS V14.01,2013-08-09 17:46:00,
2013-08-09 13:51:00,71.0,70.7,29.84,WNW,292,0.0,2.0,99,0.06,,---,0.36,VWS V14.01,2013-08-09 17:51:00,
2013-08-09 13:56:00,71.0,70.7,29.84,SSW,202,0.0,3.0,99,0.06,,---,0.37,VWS V14.01,2013-08-09 17:56:00,
2013-08-09 14:01:00,71.0,70.7,29.84,South,180,0.0,0.0,99,0.06,,---,0.37,VWS V14.01,2013-08-09 18:01:00,
2013-08-09 14:06:00,71.0,70.7,29.84,SE,135,0.0,0.0,99,0.06,,---,0.38,VWS V14.01,2013-08-09 18:06:00,
2013-08-09 14:11:00,71.0,70.7,29.84,ENE,67,2.0,5.0,99,0.08,,---,0.40,VWS V14.01,2013-08-09 18:11:00,
2013-08-09 14:16:00,71.0,70.7,29.84,ENE,67,0.0,2.0,99,0.10,,---,0.42,VWS V14.01,2013-08-09 18:16:00,
2013-08-09 14:21:00,71.0,70.7,29.84,South,180,0.0,0.0,99,0.11,,---,0.44,VWS V14.01,2013-08-09 18:21:00,
2013-08-09 14:26:00,71.0,70.7,29.84,WSW,247,0.0,0.0,99,0.14,,---,0.48,VWS V14.01,2013-08-09 18:26:00,
2013-08-09 14:31:00,71.0,70.7,29.84,South,180,1.0,2.0,99,0.17,,---,0.51,VWS V14.01,2013-08-09 18:31:00,
2013-08-09 14:36:00,71.0,70.7,29.84,SSW,202,0.0,3.0,99,0.20,,---,0.55,VWS V14.01,2013-08-09 18:36:00,
2013-08-09 14:41:00,71.0,70.7,29.85,SSW,202,0.0,0.0,99,0.25,,---,0.60,VWS V14.01,2013-08-09 18:41:00,
2013-08-09 14:46:00,71.0,70.7,29.83,SSE,157,0.0,0.0,99,0.33,,---,0.69,VWS V14.01,2013-08-09 18:46:00,
2013-08-09 14:51:00,70.0,69.7,29.83,ESE,112,0.0,1.0,99,0.40,,---,0.77,VWS V14.01,2013-08-09 18:51:00,
2013-08-09 14:56:00,70.0,69.7,29.82,WSW,247,0.0,0.0,99,0.46,,---,0.83,VWS V14.01,2013-08-09 18:56:00,
2013-08-09 15:01:00,70.0,69.7,29.82,WSW,247,0.0,0.0,99,0.49,,---,0.86,VWS V14.01,2013-08-09 19:01:00,
2013-08-09 15:06:00,70.0,69.7,29.81,East,90,0.0,0.0,99,0.51,,---,0.89,VWS V14.01,2013-08-09 19:06:00,
2013-08-09 15:11:00,70.0,69.7,29.81,East,90,0.0,0.0,99,0.55,,---,0.95,VWS V14.01,2013-08-09 19:11:00,
2013-08-09 15:16:00,70.0,69.7,29.80,NE,45,0.0,2.0,99,0.65,,---,1.06,VWS V14.01,2013-08-09 19:16:00,
2013-08-09 15:21:00,70.0,69.7,29.80,ENE,67,0.0,0.0,99,0.69,,---,1.13,VWS V14.01,2013-08-09 19:21:00,
2013-08-09 15:26:00,71.0,70.7,29.78,East,90,0.0,2.0,99,0.75,,---,1.21,VWS V14.01,2013-08-09 19:26:00,
2013-08-09 15:31:00,71.0,70.7,29.77,East,90,0.0,0.0,99,0.74,,---,1.25,VWS V14.01,2013-08-09 19:31:00,
2013-08-09 15:36:00,71.0,70.7,29.77,SSW,202,0.0,0.0,99,0.74,,---,1.27,VWS V14.01,2013-08-09 19:36:00,
2013-08-09 15:41:00,71.0,70.7,29.77,ESE,112,0.0,2.0,99,0.70,,---,1.28,VWS V14.01,2013-08-09 19:41:00,
2013-08-09 15:46:00,71.0,70.7,29.77,SSW,202,2.0,2.0,99,0.64,,---,1.31,VWS V14.01,2013-08-09 19:46:00,
2013-08-09 15:51:00,71.0,70.7,29.76,NNW,337,0.0,0.0,99,0.64,,---,1.36,VWS V14.01,2013-08-09 19:51:00,
2013-08-09 15:56:00,71.0,70.7,29.76,North,360,0.0,0.0,99,0.57,,---,1.38,VWS V14.01,2013-08-09 19:56:00,
2013-08-09 16:01:00,71.0,70.7,29.76,NE,45,0.0,0.0,99,0.53,,---,1.38,VWS V14.01,2013-08-09 20:01:00,
2013-08-09 16:06:00,71.0,70.7,29.75,East,90,0.0,4.0,99,0.54,,---,1.41,VWS V14.01,2013-08-09 20:06:00,
2013-08-09 16:11:00,71.0,70.7,29.76,South,180,0.0,2.0,99,0.55,,---,1.47,VWS V14.01,2013-08-09 20:11:00,
2013-08-09 16:16:00,71.0,70.7,29.75,South,180,0.0,0.0,99,0.51,,---,1.52,VWS V14.01,2013-08-09 20:16:00,
2013-08-09 16:21:00,71.0,70.7,29.74,ENE,67,0.0,3.0,99,0.46,,---,1.56,VWS V14.01,2013-08-09 20:21:00,
2013-08-09 16:26:00,71.0,70.7,29.74,South,180,0.0,2.0,99,0.40,,---,1.58,VWS V14.01,2013-08-09 20:26:00,
2013-08-09 16:31:00,71.0,70.7,29.74,SW,225,0.0,2.0,99,0.36,,---,1.59,VWS V14.01,2013-08-09 20:31:00,
2013-08-09 16:36:00,71.0,70.7,29.74,SSW,202,0.0,2.0,99,0.33,,---,1.60,VWS V14.01,2013-08-09 20:36:00,
2013-08-09 16:41:00,71.0,70.7,29.74,ESE,112,0.0,2.0,99,0.32,,---,1.60,VWS V14.01,2013-08-09 20:41:00,
2013-08-09 16:46:00,71.0,70.7,29.74,NW,315,2.0,5.0,99,0.33,,---,1.61,VWS V14.01,2013-08-09 20:46:00,
2013-08-09 16:51:00,71.0,70.7,29.74,SSW,202,2.0,2.0,99,0.28,,---,1.62,VWS V14.01,2013-08-09 20:51:00,
2013-08-09 16:56:00,71.0,70.7,29.74,SSW,202,0.0,0.0,99,0.25,,---,1.62,VWS V14.01,2013-08-09 20:56:00,
2013-08-09 17:01:00,71.0,70.7,29.74,NNW,337,0.0,2.0,99,0.24,,---,1.63,VWS V14.01,2013-08-09 21:01:00,
2013-08-09 17:06:00,71.0,70.7,29.74,WNW,292,0.0,0.0,99,0.24,,---,1.63,VWS V14.01,2013-08-09 21:06:00,
2013-08-09 17:11:00,71.0,70.7,29.74,SSE,157,0.0,0.0,99,0.20,,---,1.64,VWS V14.01,2013-08-09 21:11:00,
2013-08-09 17:16:00,72.0,71.7,29.75,SSW,202,0.0,2.0,99,0.15,,---,1.64,VWS V14.01,2013-08-09 21:16:00,
2013-08-09 17:21:00,72.0,71.7,29.75,WSW,247,1.0,2.0,99,0.09,,---,1.64,VWS V14.01,2013-08-09 21:21:00,
2013-08-09 17:26:00,72.0,71.7,29.75,NNE,22,0.0,0.0,99,0.08,,---,1.64,VWS V14.01,2013-08-09 21:26:00,
2013-08-09 17:31:00,72.0,71.7,29.75,NW,315,0.0,2.0,99,0.07,,---,1.65,VWS V14.01,2013-08-09 21:31:00,
2013-08-09 17:36:00,72.0,71.7,29.74,SW,225,0.0,2.0,99,0.06,,---,1.65,VWS V14.01,2013-08-09 21:36:00,
2013-08-09 17:41:00,72.0,71.7,29.74,SE,135,0.0,0.0,99,0.05,,---,1.65,VWS V14.01,2013-08-09 21:41:00,
2013-08-09 17:46:00,72.0,71.7,29.74,SE,135,0.0,0.0,99,0.04,,---,1.65,VWS V14.01,2013-08-09 21:46:00,
2013-08-09 17:51:00,72.0,71.7,29.74,SE,135,0.0,0.0,99,0.03,,---,1.65,VWS V14.01,2013-08-09 21:51:00,
2013-08-09 17:56:00,72.0,71.7,29.73,SW,225,0.0,0.0,99,0.03,,---,1.65,VWS V14.01,2013-08-09 21:56:00,
2013-08-09 18:01:00,73.0,72.7,29.73,SW,225,0.0,0.0,99,0.03,,---,1.65,VWS V14.01,2013-08-09 22:01:00,
2013-08-09 18:06:00,73.0,72.7,29.73,SW,225,0.0,0.0,99,0.02,,---,1.65,VWS V14.01,2013-08-09 22:06:00,
2013-08-09 18:11:00,74.0,73.7,29.73,SW,225,0.0,0.0,99,0.01,,---,1.65,VWS V14.01,2013-08-09 22:11:00,
2013-08-09 18:16:00,74.0,73.7,29.73,SSW,202,0.0,0.0,99,0.01,,---,1.65,VWS V14.01,2013-08-09 22:16:00,
2013-08-09 18:21:00,74.0,73.7,29.73,SSW,202,0.0,0.0,99,0.01,,---,1.65,VWS V14.01,2013-08-09 22:21:00,
2013-08-09 18:26:00,74.0,73.7,29.73,South,180,0.0,1.0,99,0.01,,---,1.65,VWS V14.01,2013-08-09 22:26:00,
2013-08-09 18:31:00,74.0,73.7,29.72,South,180,0.0,0.0,99,0.01,,---,1.65,VWS V14.01,2013-08-09 22:31:00,
2013-08-09 18:36:00,73.0,72.7,29.72,South,180,0.0,0.0,99,0.00,,---,1.65,VWS V14.01,2013-08-09 22:36:00,
2013-08-09 18:41:00,73.0,72.7,29.72,South,180,0.0,0.0,99,0.00,,---,1.65,VWS V14.01,2013-08-09 22:41:00,
2013-08-09 18:46:00,73.0,72.7,29.72,South,180,0.0,0.0,99,0.00,,---,1.65,VWS V14.01,2013-08-09 22:46:00,
2013-08-09 18:51:00,73.0,72.7,29.73,WSW,247,0.0,2.0,99,0.00,,---,1.65,VWS V14.01,2013-08-09 22:51:00,
2013-08-09 18:56:00,73.0,72.7,29.73,South,180,0.0,1.0,99,0.00,,---,1.65,VWS V14.01,2013-08-09 22:56:00,
2013-08-09 19:01:00,73.0,72.7,29.73,South,180,0.0,0.0,99,0.00,,---,1.65,VWS V14.01,2013-08-09 23:01:00,
2013-08-09 19:06:00,73.0,72.7,29.73,South,180,0.0,0.0,99,0.00,,---,1.65,VWS V14.01,2013-08-09 23:06:00,
2013-08-09 19:11:00,73.0,72.7,29.72,South,180,0.0,0.0,99,0.00,,---,1.65,VWS V14.01,2013-08-09 23:11:00,
2013-08-09 19:16:00,73.0,72.7,29.72,South,180,0.0,0.0,99,0.00,,---,1.65,VWS V14.01,2013-08-09 23:16:00,
2013-08-09 19:21:00,73.0,72.7,29.72,SSW,202,0.0,2.0,99,0.00,,---,1.65,VWS V14.01,2013-08-09 23:21:00,
2013-08-09 19:26:00,73.0,72.7,29.72,SSW,202,0.0,0.0,99,0.00,,---,1.65,VWS V14.01,2013-08-09 23:26:00,
2013-08-09 19:31:00,73.0,72.7,29.72,SSE,157,0.0,0.0,99,0.00,,---,1.65,VWS V14.01,2013-08-09 23:31:00,
2013-08-09 19:36:00,73.0,72.7,29.72,NW,315,0.0,0.0,99,0.00,,---,1.65,VWS V14.01,2013-08-09 23:36:00,
2013-08-09 19:41:00,73.0,72.7,29.74,NW,315,0.0,0.0,99,0.00,,---,1.65,VWS V14.01,2013-08-09 23:41:00,
2013-08-09 19:46:00,73.0,72.7,29.74,North,360,0.0,0.0,99,0.00,,---,1.65,VWS V14.01,2013-08-09 23:46:00,
2013-08-09 19:51:00,73.0,72.7,29.74,NW,315,0.0,0.0,99,0.00,,---,1.65,VWS V14.01,2013-08-09 23:51:00,
2013-08-09 19:56:00,73.0,72.7,29.75,North,360,0.0,0.0,99,0.00,,---,1.65,VWS V14.01,2013-08-09 23:56:00,
2013-08-09 20:01:00,73.0,72.7,29.74,North,360,0.0,0.0,99,0.00,,---,1.65,VWS V14.01,2013-08-10 00:01:00,
2013-08-09 20:06:00,72.0,71.7,29.75,NNW,337,0.0,0.0,99,0.00,,---,1.65,VWS V14.01,2013-08-10 00:06:00,
2013-08-09 20:11:00,72.0,71.7,29.76,ENE,67,0.0,0.0,99,0.00,,---,1.65,VWS V14.01,2013-08-10 00:11:00,
2013-08-09 20:16:00,72.0,71.7,29.76,ENE,67,0.0,0.0,99,0.00,,---,1.65,VWS V14.01,2013-08-10 00:16:00,
2013-08-09 20:21:00,72.0,71.7,29.76,ENE,67,0.0,0.0,99,0.00,,---,1.65,VWS V14.01,2013-08-10 00:21:00,
2013-08-09 20:26:00,72.0,71.7,29.76,ENE,67,0.0,0.0,99,0.00,,---,1.65,VWS V14.01,2013-08-10 00:26:00,
2013-08-09 20:31:00,72.0,71.7,29.76,East,90,0.0,0.0,99,0.00,,---,1.65,VWS V14.01,2013-08-10 00:31:00,
2013-08-09 20:36:00,72.0,71.7,29.76,East,90,0.0,0.0,99,0.00,,---,1.65,VWS V14.01,2013-08-10 00:36:00,
2013-08-09 20:41:00,72.0,71.7,29.76,East,90,0.0,0.0,99,0.00,,---,1.65,VWS V14.01,2013-08-10 00:41:00,
2013-08-09 20:46:00,72.0,71.7,29.76,East,90,0.0,0.0,99,0.00,,---,1.65,VWS V14.01,2013-08-10 00:46:00,
2013-08-09 20:51:00,72.0,71.7,29.76,East,90,0.0,0.0,99,0.00,,---,1.65,VWS V14.01,2013-08-10 00:51:00,
2013-08-09 20:56:00,71.0,70.7,29.77,East,90,0.0,0.0,99,0.00,,---,1.65,VWS V14.01,2013-08-10 00:56:00,
2013-08-09 21:01:00,71.0,70.7,29.77,East,90,0.0,0.0,99,0.00,,---,1.65,VWS V14.01,2013-08-10 01:01:00,
2013-08-09 21:06:00,71.0,70.7,29.77,East,90,0.0,0.0,99,0.00,,---,1.65,VWS V14.01,2013-08-10 01:06:00,
2013-08-09 21:11:00,71.0,70.7,29.77,East,90,0.0,0.0,99,0.00,,---,1.65,VWS V14.01,2013-08-10 01:11:00,
2013-08-09 21:16:00,71.0,70.7,29.77,East,90,0.0,0.0,99,0.00,,---,1.65,VWS V14.01,2013-08-10 01:16:00,
2013-08-09 21:21:00,71.0,70.7,29.77,East,90,0.0,0.0,99,0.00,,---,1.65,VWS V14.01,2013-08-10 01:21:00,
2013-08-09 21:26:00,71.0,70.7,29.77,East,90,0.0,0.0,99,0.00,,---,1.65,VWS V14.01,2013-08-10 01:26:00,
2013-08-09 21:31:00,71.0,70.7,29.77,East,90,0.0,0.0,99,0.00,,---,1.65,VWS V14.01,2013-08-10 01:31:00,
2013-08-09 21:36:00,71.0,70.7,29.77,East,90,0.0,0.0,99,0.00,,---,1.65,VWS V14.01,2013-08-10 01:36:00,
2013-08-09 21:41:00,71.0,70.7,29.77,East,90,0.0,0.0,99,0.00,,---,1.65,VWS V14.01,2013-08-10 01:41:00,
2013-08-09 21:46:00,70.0,69.7,29.76,East,90,0.0,0.0,99,0.00,,---,1.65,VWS V14.01,2013-08-10 01:46:00,
2013-08-09 21:51:00,70.0,69.7,29.76,East,90,0.0,0.0,99,0.00,,---,1.65,VWS V14.01,2013-08-10 01:51:00,
2013-08-09 21:55:00,70.0,69.7,29.76,East,90,0.0,0.0,99,0.00,,---,1.65,VWS V14.01,2013-08-10 01:55:00,
2013-08-09 22:00:00,70.0,69.7,29.76,East,90,0.0,0.0,99,0.00,,---,1.65,VWS V14.01,2013-08-10 02:00:00,
2013-08-09 22:05:00,70.0,69.7,29.76,East,90,0.0,0.0,99,0.00,,---,1.65,VWS V14.01,2013-08-10 02:05:00,
2013-08-09 22:10:00,70.0,69.7,29.76,East,90,0.0,0.0,99,0.00,,---,1.65,VWS V14.01,2013-08-10 02:10:00,
2013-08-09 22:15:00,70.0,69.7,29.76,East,90,0.0,0.0,99,0.00,,---,1.65,VWS V14.01,2013-08-10 02:15:00,
2013-08-09 22:20:00,70.0,69.7,29.76,East,90,0.0,0.0,99,0.00,,---,1.65,VWS V14.01,2013-08-10 02:20:00,
2013-08-09 22:25:00,70.0,69.7,29.76,East,90,0.0,0.0,99,0.00,,---,1.65,VWS V14.01,2013-08-10 02:25:00,
2013-08-09 22:30:00,70.0,69.7,29.76,East,90,0.0,0.0,99,0.00,,---,1.65,VWS V14.01,2013-08-10 02:30:00,
2013-08-09 22:35:00,70.0,69.7,29.76,East,90,0.0,0.0,99,0.00,,---,1.65,VWS V14.01,2013-08-10 02:35:00,
2013-08-09 22:40:00,70.0,69.7,29.76,East,90,0.0,0.0,99,0.00,,---,1.65,VWS V14.01,2013-08-10 02:40:00,
2013-08-09 22:45:00,70.0,69.7,29.77,East,90,0.0,0.0,99,0.00,,---,1.65,VWS V14.01,2013-08-10 02:45:00,
2013-08-09 22:50:00,70.0,69.7,29.76,East,90,0.0,0.0,99,0.00,,---,1.65,VWS V14.01,2013-08-10 02:50:00,
2013-08-09 22:55:00,70.0,69.7,29.76,East,90,0.0,0.0,99,0.00,,---,1.65,VWS V14.01,2013-08-10 02:55:00,
2013-08-09 23:00:00,70.0,69.7,29.77,East,90,0.0,0.0,99,0.00,,---,1.65,VWS V14.01,2013-08-10 03:00:00,
2013-08-09 23:05:00,70.0,69.7,29.77,East,90,0.0,0.0,99,0.00,,---,1.65,VWS V14.01,2013-08-10 03:05:00,
2013-08-09 23:10:00,70.0,69.7,29.77,East,90,0.0,0.0,99,0.00,,---,1.65,VWS V14.01,2013-08-10 03:10:00,
2013-08-09 23:15:00,70.0,69.7,29.77,East,90,0.0,0.0,99,0.00,,---,1.65,VWS V14.01,2013-08-10 03:15:00,
2013-08-09 23:20:00,70.0,69.7,29.77,East,90,0.0,0.0,99,0.00,,---,1.65,VWS V14.01,2013-08-10 03:20:00,
2013-08-09 23:25:00,70.0,69.7,29.77,East,90,0.0,0.0,99,0.00,,---,1.65,VWS V14.01,2013-08-10 03:25:00,
2013-08-09 23:30:00,70.0,69.7,29.77,East,90,0.0,0.0,99,0.00,,---,1.65,VWS V14.01,2013-08-10 03:30:00,
2013-08-09 23:35:00,70.0,69.7,29.77,East,90,0.0,0.0,99,0.00,,---,1.65,VWS V14.01,2013-08-10 03:35:00,
2013-08-09 23:40:00,70.0,69.7,29.77,East,90,0.0,0.0,99,0.00,,---,1.65,VWS V14.01,2013-08-10 03:40:00,
2013-08-09 23:45:00,70.0,69.7,29.77,East,90,0.0,0.0,99,0.00,,---,1.65,VWS V14.01,2013-08-10 03:45:00,
2013-08-09 23:50:00,70.0,69.7,29.77,East,90,0.0,0.0,99,0.00,,---,1.65,VWS V14.01,2013-08-10 03:50:00,
2013-08-09 23:55:00,70.0,69.7,29.77,East,90,0.0,0.0,99,0.00,,---,1.65,VWS V14.01,2013-08-10 03:55:00,